Terminal Aerodrome Forecast
Issued by NWS

Home | Current Version | Previous Version | Text Only | Print | Product List | Glossary On
Versions: 1 2 3 4 5 6 7 8 9 10 11 12 13 14 15
996
FTUS44 KTSA 281720
TAFBVO
TAF
KBVO 281720Z 2818/2918 02012G21KT P6SM SKC
     FM282100 01011KT P6SM SKC
     FM290300 02003KT P6SM SKC=

USA.gov is the U.S. government's official web portal to all federal, state and local government web resources and services.